Time;durP1;ratioP1;P1;durP2;ratioP2;P2;SDS_P1;SDS_P2;PMS_P1;PMS_P2;Temp;Humidity;BMP_temperature;BMP_pressure;BME280_temperature;BME280_humidity;BME280_pressure;Samples;Min_cycle;Max_cycle;Signal;HPM_P1;HPM_P2
2023/03/21 00:01:05;;;;;;;168.50;42.35;;;8.60;99.90;;;;;;4987202;28;20129;-63
2023/03/21 00:03:34;;;;;;;154.07;39.75;;;8.70;99.90;;;;;;5011017;28;20432;-64
2023/03/21 00:06:08;;;;;;;114.35;35.92;;;8.60;99.90;;;;;;4972957;28;20038;-64
2023/03/21 00:08:34;;;;;;;130.73;37.40;;;8.50;99.90;;;;;;5007108;28;20181;-64
2023/03/21 00:11:02;;;;;;;143.43;40.35;;;8.50;99.90;;;;;;5006938;28;20415;-64
2023/03/21 00:13:31;;;;;;;115.07;36.08;;;8.90;99.90;;;;;;4998705;28;20042;-64
2023/03/21 00:16:03;;;;;;;135.75;37.28;;;8.80;99.90;;;;;;5000917;28;20149;-63
2023/03/21 00:18:29;;;;;;;122.35;35.25;;;8.80;99.90;;;;;;5002776;28;20074;-64
2023/03/21 00:20:59;;;;;;;126.18;35.30;;;8.90;99.90;;;;;;4987080;28;20087;-64
2023/03/21 00:23:26;;;;;;;106.43;32.85;;;8.80;99.90;;;;;;4987695;28;20042;-63
2023/03/21 00:25:53;;;;;;;114.53;32.72;;;8.60;99.90;;;;;;4985998;28;20462;-64
2023/03/21 00:28:19;;;;;;;120.30;34.35;;;8.60;99.90;;;;;;4986099;28;20481;-63
2023/03/21 00:30:44;;;;;;;116.32;34.92;;;8.90;99.90;;;;;;4988606;28;20046;-64
2023/03/21 00:33:11;;;;;;;102.25;32.95;;;8.80;99.90;;;;;;5017899;28;20065;-64
2023/03/21 00:35:38;;;;;;;106.13;32.90;;;8.90;99.90;;;;;;4996072;28;20046;-65
2023/03/21 00:38:03;;;;;;;92.45;32.25;;;8.60;99.90;;;;;;4981462;28;20033;-63
2023/03/21 00:40:29;;;;;;;95.97;31.85;;;8.80;99.90;;;;;;4976366;28;20468;-64
2023/03/21 00:42:55;;;;;;;104.57;31.15;;;8.60;99.90;;;;;;4992889;28;20642;-63
2023/03/21 00:45:21;;;;;;;100.35;32.13;;;8.60;99.90;;;;;;4976127;28;20080;-63
2023/03/21 00:47:47;;;;;;;112.88;33.78;;;8.50;99.90;;;;;;4995923;28;20053;-64
2023/03/21 00:50:13;;;;;;;89.97;31.30;;;8.70;99.90;;;;;;4977231;28;20046;-63
2023/03/21 00:52:39;;;;;;;89.30;31.13;;;8.90;99.90;;;;;;4961884;28;20590;-65
2023/03/21 00:55:06;;;;;;;90.00;29.63;;;8.60;99.90;;;;;;4975801;28;20070;-64
2023/03/21 00:57:31;;;;;;;82.75;29.77;;;8.60;99.90;;;;;;4992214;28;20046;-65
2023/03/21 00:59:57;;;;;;;92.45;30.95;;;9.00;99.90;;;;;;4977997;28;20132;-65
2023/03/21 01:02:26;;;;;;;89.80;31.35;;;8.50;99.90;;;;;;4976023;28;20140;-65
2023/03/21 01:04:53;;;;;;;93.57;31.83;;;9.00;99.90;;;;;;5006331;28;20050;-65
2023/03/21 01:07:19;;;;;;;89.35;30.05;;;8.60;99.90;;;;;;4992155;28;20065;-66
2023/03/21 01:09:45;;;;;;;83.63;29.98;;;8.80;99.90;;;;;;4976241;28;20046;-65
2023/03/21 01:12:11;;;;;;;80.72;29.88;;;8.70;99.90;;;;;;4993550;28;20489;-65
2023/03/21 01:14:37;;;;;;;85.47;30.20;;;8.70;99.90;;;;;;4977032;28;20246;-65
2023/03/21 01:17:02;;;;;;;81.70;30.02;;;8.90;99.90;;;;;;4990230;28;20088;-64
2023/03/21 01:19:29;;;;;;;92.53;31.05;;;8.90;99.90;;;;;;4978976;28;20069;-65
2023/03/21 01:21:55;;;;;;;86.63;30.42;;;8.60;99.90;;;;;;4980259;28;20132;-66
2023/03/21 01:24:21;;;;;;;76.70;28.65;;;8.60;99.90;;;;;;4986292;28;20044;-63
2023/03/21 01:26:47;;;;;;;71.90;27.98;;;8.70;99.90;;;;;;5017437;28;20093;-61
2023/03/21 01:29:13;;;;;;;80.35;28.52;;;8.90;99.90;;;;;;4987144;28;20044;-63
2023/03/21 01:31:39;;;;;;;79.32;27.60;;;8.70;99.90;;;;;;4991346;28;20045;-63
2023/03/21 01:34:04;;;;;;;79.40;28.35;;;9.00;99.90;;;;;;4978203;28;20817;-63
2023/03/21 01:36:30;;;;;;;74.43;26.27;;;8.60;99.90;;;;;;4976696;28;20591;-64
2023/03/21 01:38:56;;;;;;;81.78;27.30;;;9.00;99.90;;;;;;4975667;28;20215;-63
2023/03/21 01:41:34;;;;;;;71.50;26.23;;;8.80;99.90;;;;;;4974013;28;20273;-64
2023/03/21 01:44:00;;;;;;;88.88;27.90;;;8.70;99.90;;;;;;4977262;28;20154;-63
2023/03/21 01:46:48;;;;;;;97.03;29.45;;;8.80;99.90;;;;;;4980213;28;20042;-64
2023/03/21 01:49:35;;;;;;;105.72;29.27;;;8.60;99.90;;;;;;4980485;28;20122;-63
2023/03/21 01:52:07;;;;;;;103.78;29.60;;;8.90;99.90;;;;;;4980161;28;20229;-64
2023/03/21 01:54:36;;;;;;;107.70;28.50;;;9.00;99.90;;;;;;4960892;28;20048;-63
2023/03/21 01:57:10;;;;;;;130.10;30.85;;;8.90;99.90;;;;;;4981623;28;20412;-63
2023/03/21 01:59:41;;;;;;;127.50;30.48;;;8.60;99.90;;;;;;4996539;28;20451;-64
2023/03/21 02:02:16;;;;;;;141.63;30.48;;;8.60;99.90;;;;;;4987163;28;20042;-63
2023/03/21 02:04:54;;;;;;;188.23;35.78;;;9.00;99.90;;;;;;4984404;28;20041;-64
2023/03/21 02:07:35;;;;;;;211.55;36.60;;;9.10;99.90;;;;;;4981826;28;20770;-62
2023/03/21 02:10:06;;;;;;;271.50;39.38;;;8.80;99.90;;;;;;4979579;28;20066;-65
2023/03/21 02:12:32;;;;;;;280.27;38.80;;;9.10;99.90;;;;;;5006393;28;20196;-64
2023/03/21 02:14:58;;;;;;;259.58;37.85;;;9.00;99.90;;;;;;5011716;28;20035;-63
2023/03/21 02:17:53;;;;;;;261.42;39.92;;;8.60;99.90;;;;;;4997787;28;20112;-65
2023/03/21 02:20:38;;;;;;;273.67;37.70;;;8.80;99.90;;;;;;4928495;28;20057;-64
2023/03/21 02:23:28;;;;;;;215.25;35.33;;;8.90;99.90;;;;;;4978126;28;20442;-63
2023/03/21 02:26:15;;;;;;;289.17;40.88;;;8.80;99.90;;;;;;4981093;28;20589;-63
2023/03/21 02:28:47;;;;;;;234.65;38.90;;;8.70;99.90;;;;;;4993712;28;20049;-63
2023/03/21 02:31:31;;;;;;;220.02;39.97;;;9.00;99.90;;;;;;4980365;28;20042;-64
2023/03/21 02:34:25;;;;;;;248.60;40.40;;;8.90;99.90;;;;;;5009036;28;20129;-63
2023/03/21 02:36:53;;;;;;;;;;;8.70;99.90;;;;;;4979695;28;21372;-64
2023/03/21 02:39:39;;;;;;;177.68;35.53;;;8.80;99.90;;;;;;4997637;28;19924;-64
2023/03/21 02:42:28;;;;;;;193.65;35.28;;;8.70;99.90;;;;;;4994440;28;20049;-64
2023/03/21 02:45:05;;;;;;;181.57;36.13;;;8.70;99.90;;;;;;4979750;28;20078;-65
2023/03/21 02:47:51;;;;;;;158.45;34.42;;;8.80;99.90;;;;;;4979353;28;20541;-64
2023/03/21 02:50:36;;;;;;;145.55;32.70;;;9.20;99.90;;;;;;4992690;28;20081;-65
2023/03/21 02:53:05;;;;;;;141.20;31.70;;;9.10;99.90;;;;;;5006246;28;20038;-63
2023/03/21 02:55:32;;;;;;;142.10;31.52;;;8.80;99.90;;;;;;4987909;28;20046;-62
2023/03/21 02:57:59;;;;;;;163.88;33.88;;;9.20;99.90;;;;;;4989954;28;20125;-64
2023/03/21 03:00:28;;;;;;;167.02;35.55;;;8.80;99.90;;;;;;4989808;28;20049;-63
2023/03/21 03:02:54;;;;;;;166.73;36.95;;;8.90;99.90;;;;;;5007056;28;20047;-63
2023/03/21 03:05:25;;;;;;;160.20;37.00;;;8.70;99.90;;;;;;4988114;28;20128;-64
2023/03/21 03:08:26;;;;;;;175.05;38.10;;;8.70;99.90;;;;;;5020459;28;20572;-63
2023/03/21 03:11:18;;;;;;;149.52;35.03;;;8.90;99.90;;;;;;4978554;28;20503;-63
2023/03/21 03:13:56;;;;;;;156.75;37.08;;;8.80;99.90;;;;;;4988416;28;20045;-63
2023/03/21 03:16:25;;;;;;;145.90;37.67;;;8.70;99.90;;;;;;4990274;28;20057;-63
2023/03/21 03:18:53;;;;;;;149.85;36.47;;;8.70;99.90;;;;;;5018222;28;20104;-62
2023/03/21 03:21:42;;;;;;;141.25;37.08;;;9.00;99.90;;;;;;5001684;28;20721;-64
2023/03/21 03:24:28;;;;;;;136.77;36.85;;;9.20;99.90;;;;;;4979765;28;20114;-66
2023/03/21 03:27:08;;;;;;;146.77;38.45;;;8.80;99.90;;;;;;5007750;28;20113;-65
2023/03/21 03:29:38;;;;;;;134.18;38.72;;;9.00;99.90;;;;;;4978766;28;20050;-65
2023/03/21 03:32:18;;;;;;;114.72;36.17;;;8.90;99.90;;;;;;4978593;28;20132;-65
2023/03/21 03:34:49;;;;;;;136.63;39.55;;;9.10;99.90;;;;;;4978417;28;20053;-65
2023/03/21 03:37:20;;;;;;;137.60;39.15;;;9.00;99.90;;;;;;4980356;28;20125;-64
2023/03/21 03:40:04;;;;;;;124.75;39.50;;;9.10;99.90;;;;;;4988973;28;20049;-63
2023/03/21 03:42:42;;;;;;;133.43;40.42;;;8.80;99.90;;;;;;4991101;28;20045;-64
2023/03/21 03:45:09;;;;;;;126.50;40.42;;;8.90;99.90;;;;;;4989894;28;20026;-66
2023/03/21 03:47:45;;;;;;;120.65;40.28;;;8.80;99.90;;;;;;4990236;28;20470;-64
2023/03/21 03:50:27;;;;;;;130.13;41.25;;;8.80;99.90;;;;;;4988056;28;20065;-64
2023/03/21 03:53:04;;;;;;;124.95;41.65;;;9.10;99.90;;;;;;4992422;28;20038;-66
2023/03/21 03:55:33;;;;;;;125.10;41.30;;;8.70;99.90;;;;;;4979633;28;20116;-66
2023/03/21 03:58:00;;;;;;;105.03;39.05;;;8.80;99.90;;;;;;5007627;28;20034;-65
2023/03/21 04:00:26;;;;;;;123.47;40.72;;;8.70;99.90;;;;;;4978285;28;20046;-65
2023/03/21 04:02:53;;;;;;;104.63;39.17;;;8.80;99.90;;;;;;4975730;28;21663;-65
2023/03/21 04:05:20;;;;;;;108.63;40.42;;;9.20;99.90;;;;;;4978962;28;20038;-65
2023/03/21 04:07:49;;;;;;;120.22;42.05;;;9.00;99.90;;;;;;5009921;28;20271;-64
2023/03/21 04:10:15;;;;;;;116.65;41.42;;;9.20;99.90;;;;;;4977816;28;20284;-66
2023/03/21 04:12:41;;;;;;;114.65;41.38;;;9.00;99.90;;;;;;4977169;28;20133;-65
2023/03/21 04:15:08;;;;;;;112.95;40.85;;;8.80;99.90;;;;;;4977814;28;20038;-65
2023/03/21 04:17:34;;;;;;;97.20;36.90;;;9.10;99.90;;;;;;4991636;28;20342;-64
2023/03/21 04:20:00;;;;;;;93.57;37.60;;;9.20;99.90;;;;;;4993536;28;20077;-63
2023/03/21 04:22:26;;;;;;;96.55;38.10;;;9.00;99.90;;;;;;4994282;28;20535;-64
2023/03/21 04:24:52;;;;;;;89.78;37.95;;;8.90;99.90;;;;;;4979264;28;20054;-63
2023/03/21 04:27:17;;;;;;;83.07;36.53;;;8.90;99.90;;;;;;4985464;28;20053;-63
2023/03/21 04:29:43;;;;;;;87.68;35.20;;;8.90;99.90;;;;;;4987488;28;20058;-62
2023/03/21 04:32:15;;;;;;;89.03;36.90;;;9.30;99.90;;;;;;5002758;28;20038;-63
2023/03/21 04:34:48;;;;;;;99.75;36.75;;;8.70;99.90;;;;;;4989973;28;20308;-62
2023/03/21 04:37:18;;;;;;;87.95;35.30;;;8.90;99.90;;;;;;5012601;28;20048;-63
2023/03/21 04:39:46;;;;;;;96.05;36.45;;;9.20;99.90;;;;;;4987719;28;20048;-63
2023/03/21 04:42:17;;;;;;;98.20;37.10;;;8.80;99.90;;;;;;5003606;28;20668;-63
2023/03/21 04:44:44;;;;;;;95.85;34.88;;;9.00;99.90;;;;;;4987635;28;20055;-64
2023/03/21 04:47:12;;;;;;;95.43;35.22;;;8.80;99.90;;;;;;4987409;28;20042;-62
2023/03/21 04:49:38;;;;;;;84.72;33.03;;;8.80;99.90;;;;;;4986978;28;20042;-64
2023/03/21 04:52:04;;;;;;;93.95;33.97;;;9.20;99.90;;;;;;4983720;28;20038;-64
2023/03/21 04:54:31;;;;;;;91.65;33.45;;;9.10;99.90;;;;;;4977922;28;20035;-63
2023/03/21 04:56:57;;;;;;;84.88;31.33;;;8.90;99.90;;;;;;5006122;28;20204;-65
2023/03/21 04:59:23;;;;;;;78.03;29.33;;;8.80;99.90;;;;;;4976857;28;20205;-63
2023/03/21 05:01:50;;;;;;;86.25;30.20;;;8.80;99.90;;;;;;4978833;28;20519;-63
2023/03/21 05:04:16;;;;;;;78.35;29.20;;;8.90;99.90;;;;;;4975234;28;20038;-64
2023/03/21 05:06:44;;;;;;;76.07;28.48;;;8.80;99.90;;;;;;4974513;28;20050;-63
2023/03/21 05:09:10;;;;;;;77.80;28.25;;;9.00;99.90;;;;;;4992641;28;20046;-64
2023/03/21 05:11:38;;;;;;;73.50;27.48;;;9.10;99.90;;;;;;4994950;28;20128;-65
2023/03/21 05:14:10;;;;;;;69.13;25.55;;;8.80;99.90;;;;;;4990831;28;20417;-64
2023/03/21 05:16:37;;;;;;;72.03;24.63;;;9.30;99.90;;;;;;4974181;28;20508;-63
2023/03/21 05:19:03;;;;;;;71.18;24.05;;;9.30;99.90;;;;;;4990417;28;20065;-63
2023/03/21 05:21:33;;;;;;;67.18;23.20;;;8.90;99.90;;;;;;4982390;28;20114;-63
2023/03/21 05:24:02;;;;;;;64.88;23.48;;;9.20;99.90;;;;;;4980661;28;20245;-64
2023/03/21 05:26:29;;;;;;;63.45;23.67;;;8.70;99.90;;;;;;4978992;28;20050;-65
2023/03/21 05:28:55;;;;;;;58.97;22.30;;;9.30;99.90;;;;;;4983324;28;20330;-63
2023/03/21 05:31:20;;;;;;;57.15;21.98;;;9.20;99.90;;;;;;4996562;28;20524;-65
2023/03/21 05:33:46;;;;;;;56.35;19.63;;;8.80;99.90;;;;;;5008821;28;20128;-64
2023/03/21 05:36:13;;;;;;;55.38;20.92;;;9.20;99.90;;;;;;4982547;28;20034;-65
2023/03/21 05:38:44;;;;;;;59.63;22.23;;;9.00;99.90;;;;;;5010178;28;20362;-64
2023/03/21 05:41:14;;;;;;;58.95;22.70;;;8.80;99.90;;;;;;4996598;28;20491;-63
2023/03/21 05:43:40;;;;;;;54.38;21.00;;;9.00;99.90;;;;;;4980213;28;20691;-63
2023/03/21 05:46:06;;;;;;;55.85;21.42;;;9.00;99.90;;;;;;4981033;28;20181;-64
2023/03/21 05:48:33;;;;;;;63.25;21.88;;;8.80;99.90;;;;;;4995952;28;20038;-65
2023/03/21 05:51:00;;;;;;;58.45;20.90;;;8.80;99.90;;;;;;4980805;28;20057;-62
2023/03/21 05:53:26;;;;;;;65.72;21.77;;;8.80;99.90;;;;;;4994544;28;20033;-63
2023/03/21 05:55:51;;;;;;;58.45;21.38;;;8.70;99.90;;;;;;4980470;28;20129;-63
2023/03/21 05:58:17;;;;;;;53.30;21.02;;;8.80;99.90;;;;;;4996386;28;20026;-63
2023/03/21 06:00:43;;;;;;;57.45;20.42;;;9.30;99.90;;;;;;4999704;28;20133;-62
2023/03/21 06:03:09;;;;;;;71.72;22.17;;;9.00;99.90;;;;;;5006586;28;20042;-64
2023/03/21 06:05:34;;;;;;;61.72;21.90;;;9.30;99.90;;;;;;4989198;28;20491;-63
2023/03/21 06:08:00;;;;;;;67.45;22.58;;;8.90;99.90;;;;;;4986509;28;20293;-62
2023/03/21 06:10:26;;;;;;;59.50;19.70;;;9.30;99.90;;;;;;4982624;28;20222;-64
2023/03/21 06:12:51;;;;;;;68.68;23.00;;;9.00;99.90;;;;;;4979824;28;20038;-64
2023/03/21 06:15:17;;;;;;;60.95;21.45;;;9.40;99.90;;;;;;5011297;28;20039;-64
2023/03/21 06:17:43;;;;;;;64.55;22.00;;;9.40;99.90;;;;;;4993033;28;20057;-63
2023/03/21 06:20:10;;;;;;;62.78;20.95;;;9.00;99.90;;;;;;4981036;28;20042;-63
2023/03/21 06:22:36;;;;;;;73.40;22.38;;;9.50;99.90;;;;;;4981464;28;20447;-63
2023/03/21 06:25:04;;;;;;;72.65;22.40;;;9.30;99.90;;;;;;4978990;28;20034;-63
2023/03/21 06:27:30;;;;;;;54.80;19.92;;;9.40;99.90;;;;;;4978249;28;20188;-64
2023/03/21 06:29:58;;;;;;;63.67;22.25;;;9.10;99.90;;;;;;4978965;28;20049;-63
2023/03/21 06:32:25;;;;;;;58.47;21.88;;;9.30;99.90;;;;;;4982007;28;20129;-63
2023/03/21 06:34:51;;;;;;;58.45;21.80;;;8.90;99.90;;;;;;4989632;28;20053;-63
2023/03/21 06:37:17;;;;;;;58.28;20.70;;;9.00;99.90;;;;;;4990217;28;20066;-63
2023/03/21 06:39:43;;;;;;;54.15;20.85;;;9.40;99.90;;;;;;5020071;28;20496;-63
2023/03/21 06:42:09;;;;;;;49.88;20.50;;;9.50;99.90;;;;;;5021490;28;20097;-63
2023/03/21 06:44:35;;;;;;;52.78;20.20;;;9.40;99.90;;;;;;5009240;28;20534;-63
2023/03/21 06:47:00;;;;;;;52.38;20.60;;;9.30;99.90;;;;;;5021047;28;20046;-64
2023/03/21 06:49:26;;;;;;;46.80;19.50;;;9.30;99.90;;;;;;4998513;28;20133;-63
2023/03/21 06:51:52;;;;;;;49.58;20.08;;;9.50;99.90;;;;;;4980933;28;20625;-63
2023/03/21 06:54:18;;;;;;;47.22;19.00;;;9.30;99.90;;;;;;4996716;28;20046;-63
2023/03/21 06:56:45;;;;;;;40.33;18.48;;;9.20;99.90;;;;;;5011690;28;20129;-63
2023/03/21 06:59:11;;;;;;;47.30;19.90;;;9.00;99.90;;;;;;4981258;28;20038;-65
2023/03/21 07:01:36;;;;;;;43.42;19.65;;;9.60;99.90;;;;;;4996149;28;20042;-65
2023/03/21 07:04:03;;;;;;;46.13;19.80;;;9.50;99.90;;;;;;5010951;28;20053;-65
2023/03/21 07:06:29;;;;;;;40.08;18.77;;;9.20;99.90;;;;;;4983473;28;20421;-65
2023/03/21 07:08:56;;;;;;;45.95;19.70;;;9.60;99.90;;;;;;4979807;28;20220;-65
2023/03/21 07:11:23;;;;;;;47.25;19.38;;;9.70;99.90;;;;;;4978659;28;20638;-64
2023/03/21 07:13:49;;;;;;;43.78;19.58;;;9.50;99.90;;;;;;4996074;28;20128;-63
2023/03/21 07:16:16;;;;;;;45.88;20.33;;;9.70;99.90;;;;;;4964589;28;20042;-64
2023/03/21 07:18:42;;;;;;;44.08;20.92;;;9.40;99.90;;;;;;4994158;28;20054;-62
2023/03/21 07:21:08;;;;;;;41.75;20.33;;;9.70;99.90;;;;;;4991905;28;20038;-63
2023/03/21 07:23:34;;;;;;;49.83;20.30;;;9.10;99.90;;;;;;4993103;28;20606;-63
2023/03/21 07:26:00;;;;;;;47.85;21.33;;;9.20;99.90;;;;;;5007654;28;20046;-63
2023/03/21 07:28:26;;;;;;;48.22;19.83;;;9.20;99.90;;;;;;4977792;28;20042;-63
2023/03/21 07:30:59;;;;;;;45.47;20.25;;;9.10;99.90;;;;;;5006804;28;20281;-64
2023/03/21 07:33:25;;;;;;;41.85;19.00;;;9.30;99.90;;;;;;5011771;28;20532;-62
2023/03/21 07:35:53;;;;;;;44.05;19.98;;;9.20;99.90;;;;;;4992677;28;20516;-62
2023/03/21 07:38:19;;;;;;;34.63;16.60;;;9.70;99.90;;;;;;4978912;28;20034;-63
2023/03/21 07:40:47;;;;;;;37.83;17.73;;;9.60;99.90;;;;;;5008320;28;20050;-63
2023/03/21 07:43:13;;;;;;;49.65;20.63;;;9.80;99.90;;;;;;4960850;28;20442;-64
2023/03/21 07:45:39;;;;;;;40.80;19.55;;;9.30;99.90;;;;;;4977453;28;20856;-62
2023/03/21 07:48:04;;;;;;;37.42;18.85;;;9.80;99.90;;;;;;4977451;28;20253;-63
2023/03/21 07:50:30;;;;;;;45.95;19.85;;;9.90;99.90;;;;;;5006733;28;20747;-63
2023/03/21 07:52:56;;;;;;;40.22;19.15;;;9.60;99.90;;;;;;4978240;28;20367;-63
2023/03/21 07:55:22;;;;;;;39.20;18.95;;;9.80;99.90;;;;;;4978354;28;20042;-64
2023/03/21 07:57:52;;;;;;;40.00;19.73;;;9.40;99.90;;;;;;4977532;28;20046;-62
2023/03/21 08:00:23;;;;;;;36.20;18.52;;;9.40;99.90;;;;;;4976956;28;20124;-63
2023/03/21 08:02:58;;;;;;;29.65;16.83;;;9.50;99.90;;;;;;5100369;27;20442;-63
2023/03/21 08:05:25;;;;;;;31.00;16.63;;;9.90;99.90;;;;;;5100823;28;20325;-63
2023/03/21 08:07:51;;;;;;;28.88;16.58;;;9.40;99.90;;;;;;5075578;28;20039;-64
2023/03/21 08:10:18;;;;;;;34.20;17.13;;;9.40;99.90;;;;;;5113870;27;20035;-63
2023/03/21 08:12:44;;;;;;;30.35;16.15;;;9.80;99.90;;;;;;5100454;28;20413;-65
2023/03/21 08:15:11;;;;;;;27.90;15.55;;;9.50;99.90;;;;;;5100526;28;20633;-64
2023/03/21 08:17:38;;;;;;;27.48;15.57;;;9.40;99.90;;;;;;5090204;28;20131;-64
2023/03/21 08:20:08;;;;;;;30.98;15.82;;;9.90;99.90;;;;;;5087429;28;20046;-64
2023/03/21 08:22:35;;;;;;;26.77;15.18;;;10.00;99.90;;;;;;5102333;28;20066;-65
2023/03/21 08:25:04;;;;;;;22.95;13.57;;;9.50;99.90;;;;;;5072767;28;20139;-64
2023/03/21 08:27:30;;;;;;;24.27;14.07;;;9.70;99.90;;;;;;5098835;28;20086;-63
2023/03/21 08:29:56;;;;;;;26.75;14.88;;;9.40;99.90;;;;;;5081548;28;20043;-63
2023/03/21 08:32:28;;;;;;;23.50;14.05;;;10.00;99.90;;;;;;5099465;28;20109;-63
2023/03/21 08:34:56;;;;;;;22.67;13.75;;;10.00;99.90;;;;;;5112685;27;20098;-63
2023/03/21 08:37:22;;;;;;;22.15;13.48;;;10.00;99.90;;;;;;5112695;28;20592;-64
2023/03/21 08:39:48;;;;;;;19.25;12.27;;;9.60;99.90;;;;;;5081202;28;20354;-63
2023/03/21 08:42:14;;;;;;;21.80;13.32;;;9.70;99.90;;;;;;5083841;28;20287;-63
2023/03/21 08:44:40;;;;;;;20.17;12.93;;;9.60;99.90;;;;;;5099727;28;20550;-63
2023/03/21 08:47:07;;;;;;;19.90;12.30;;;10.10;99.90;;;;;;5087466;28;20057;-64
2023/03/21 08:49:34;;;;;;;17.23;11.65;;;9.70;99.90;;;;;;5100235;28;20128;-63
2023/03/21 08:52:00;;;;;;;17.35;11.75;;;9.60;99.90;;;;;;5103726;28;20050;-64
2023/03/21 08:54:26;;;;;;;14.95;10.88;;;10.00;99.90;;;;;;5092195;28;20039;-63
2023/03/21 08:56:51;;;;;;;13.98;10.55;;;9.60;99.90;;;;;;5086837;28;20044;-64
2023/03/21 08:59:17;;;;;;;14.95;9.88;;;9.60;99.90;;;;;;5099523;28;20035;-63
2023/03/21 09:01:43;;;;;;;13.73;9.55;;;10.20;99.90;;;;;;5103240;28;20467;-63
2023/03/21 09:04:10;;;;;;;13.30;9.52;;;9.70;99.90;;;;;;5077090;28;20247;-63
2023/03/21 09:06:48;;;;;;;13.88;9.48;;;9.60;99.90;;;;;;5086595;28;20043;-63
2023/03/21 09:09:15;;;;;;;11.20;9.27;;;9.70;99.90;;;;;;5094880;28;20289;-64
2023/03/21 09:11:41;;;;;;;9.05;7.03;;;10.10;99.90;;;;;;5103428;28;20134;-63
2023/03/21 09:14:07;;;;;;;11.00;8.57;;;10.10;99.90;;;;;;5085105;28;20857;-65
2023/03/21 09:16:34;;;;;;;11.95;8.68;;;10.20;99.90;;;;;;5088512;28;20878;-65
2023/03/21 09:19:02;;;;;;;11.48;8.60;;;10.30;99.90;;;;;;5082930;28;20043;-65
2023/03/21 09:21:28;;;;;;;10.20;7.53;;;10.20;99.90;;;;;;5072773;28;20051;-65
2023/03/21 09:23:57;;;;;;;8.98;7.18;;;9.80;99.90;;;;;;5079421;28;20041;-65
2023/03/21 09:26:23;;;;;;;9.18;7.13;;;9.70;99.90;;;;;;5070646;28;20036;-64
2023/03/21 09:28:50;;;;;;;7.78;6.45;;;10.30;99.90;;;;;;5074339;28;20093;-63
2023/03/21 09:31:21;;;;;;;7.47;5.55;;;10.20;99.90;;;;;;5073236;28;20476;-64
2023/03/21 09:33:52;;;;;;;5.85;5.03;;;9.70;99.90;;;;;;5059552;28;20206;-65
2023/03/21 09:36:19;;;;;;;5.72;4.85;;;9.60;99.90;;;;;;5071365;28;20035;-65
2023/03/21 09:38:46;;;;;;;7.55;5.82;;;9.60;99.90;;;;;;5069511;28;20368;-65
2023/03/21 09:41:15;;;;;;;6.78;5.85;;;9.70;99.90;;;;;;5039913;28;20044;-65
2023/03/21 09:43:53;;;;;;;10.43;7.38;;;9.70;99.90;;;;;;5066791;28;20036;-64
2023/03/21 09:46:26;;;;;;;10.57;8.10;;;10.10;99.90;;;;;;5075614;28;20039;-64
2023/03/21 09:49:09;;;;;;;11.70;8.60;;;10.20;99.90;;;;;;5077233;28;20083;-63
2023/03/21 09:51:45;;;;;;;9.43;7.40;;;9.60;99.90;;;;;;5072532;28;20405;-63
2023/03/21 09:54:25;;;;;;;13.63;9.43;;;9.70;99.90;;;;;;5094353;27;20540;-63
2023/03/21 09:56:55;;;;;;;14.57;9.70;;;9.60;99.90;;;;;;5079424;28;20062;-62
2023/03/21 09:59:36;;;;;;;13.93;10.48;;;10.10;99.90;;;;;;5082875;28;20424;-64
2023/03/21 10:02:31;;;;;;;13.75;10.35;;;9.80;99.90;;;;;;5071740;28;20355;-64
2023/03/21 10:04:59;;;;;;;15.57;11.02;;;10.20;99.90;;;;;;5079459;28;20044;-64
2023/03/21 10:07:29;;;;;;;16.27;10.85;;;9.80;99.90;;;;;;5073079;28;20048;-63
2023/03/21 10:09:58;;;;;;;13.82;10.57;;;10.20;99.90;;;;;;5079595;28;20047;-63
2023/03/21 10:12:29;;;;;;;18.42;11.82;;;10.10;99.90;;;;;;5089307;28;20044;-62
2023/03/21 10:14:57;;;;;;;15.43;11.90;;;10.10;99.90;;;;;;5074035;28;20044;-62
2023/03/21 10:17:36;;;;;;;15.68;11.85;;;10.20;99.90;;;;;;5071618;28;20071;-63
2023/03/21 10:20:20;;;;;;;17.88;12.68;;;9.90;99.90;;;;;;5079580;28;20485;-63
2023/03/21 10:22:47;;;;;;;15.80;11.65;;;9.70;99.90;;;;;;5090235;28;20541;-64
2023/03/21 10:25:25;;;;;;;14.98;11.77;;;9.80;99.90;;;;;;5079587;27;20047;-65
2023/03/21 10:27:51;;;;;;;17.08;12.85;;;9.70;99.90;;;;;;5070874;28;20047;-64
2023/03/21 10:30:25;;;;;;;17.98;12.75;;;10.20;99.90;;;;;;5075831;28;20112;-65
2023/03/21 10:32:51;;;;;;;17.50;12.55;;;10.30;99.90;;;;;;5088775;28;20435;-65
2023/03/21 10:35:18;;;;;;;20.95;13.43;;;9.60;99.90;;;;;;5080339;28;20226;-64
2023/03/21 10:37:44;;;;;;;15.82;12.20;;;9.60;99.90;;;;;;5087320;27;20040;-64
2023/03/21 10:40:15;;;;;;;19.33;13.15;;;9.60;99.90;;;;;;5078120;28;20031;-64
2023/03/21 10:42:42;;;;;;;18.63;13.82;;;10.20;99.90;;;;;;5067674;28;20036;-65
2023/03/21 10:45:19;;;;;;;19.48;13.95;;;9.60;99.90;;;;;;5065415;28;20154;-64
2023/03/21 10:47:48;;;;;;;21.52;14.05;;;9.90;99.90;;;;;;5072607;28;20047;-64
2023/03/21 10:50:16;;;;;;;21.15;14.18;;;9.70;99.90;;;;;;5077048;28;20046;-64
2023/03/21 10:52:52;;;;;;;19.48;15.15;;;9.60;99.90;;;;;;5088042;28;20050;-64
2023/03/21 10:55:24;;;;;;;21.77;14.77;;;9.50;99.90;;;;;;5082827;28;20363;-64
2023/03/21 10:58:09;;;;;;;20.63;15.98;;;9.70;99.90;;;;;;5072861;28;20108;-63
2023/03/21 11:00:40;;;;;;;22.38;15.88;;;10.00;99.90;;;;;;5062394;28;20047;-64
2023/03/21 11:03:14;;;;;;;24.83;18.02;;;9.60;99.90;;;;;;5072645;28;20802;-65
2023/03/21 11:05:41;;;;;;;29.77;20.25;;;9.40;99.90;;;;;;5070865;28;20553;-64
2023/03/21 11:08:13;;;;;;;28.73;20.50;;;9.40;99.90;;;;;;5087465;28;20435;-64
2023/03/21 11:11:02;;;;;;;28.10;20.97;;;9.50;99.90;;;;;;5063525;28;20035;-64
2023/03/21 11:13:40;;;;;;;31.52;21.00;;;9.40;99.90;;;;;;5072292;28;20063;-65
2023/03/21 11:16:09;;;;;;;29.05;22.15;;;9.40;99.90;;;;;;5074693;28;20047;-65
2023/03/21 11:18:43;;;;;;;28.52;20.73;;;10.00;99.90;;;;;;5071160;28;20586;-64
2023/03/21 11:21:12;;;;;;;31.60;22.08;;;10.10;99.90;;;;;;5078715;28;20258;-64
2023/03/21 11:23:46;;;;;;;29.92;21.30;;;10.10;99.90;;;;;;5064542;28;20812;-63
2023/03/21 11:26:35;;;;;;;29.55;21.08;;;10.10;99.90;;;;;;5081917;28;20217;-64
2023/03/21 11:29:27;;;;;;;24.90;19.20;;;9.60;99.90;;;;;;5071156;28;20510;-64
2023/03/21 11:31:58;;;;;;;25.20;19.17;;;10.10;99.90;;;;;;5058198;28;20048;-64
2023/03/21 11:34:42;;;;;;;32.47;22.25;;;10.00;99.90;;;;;;5087270;28;20199;-63
2023/03/21 11:37:45;;;;;;;25.52;19.23;;;10.20;99.90;;;;;;5072519;28;20427;-64
2023/03/21 11:40:27;;;;;;;25.30;19.35;;;10.40;99.90;;;;;;5075403;28;20138;-64
2023/03/21 11:42:57;;;;;;;25.92;19.30;;;10.40;99.90;;;;;;5087117;27;20040;-63
2023/03/21 11:45:25;;;;;;;23.38;17.73;;;10.00;99.90;;;;;;5070799;28;20040;-64
2023/03/21 11:47:55;;;;;;;22.20;17.38;;;10.50;99.90;;;;;;5083304;28;20054;-63
2023/03/21 11:50:35;;;;;;;20.75;14.52;;;10.40;99.90;;;;;;5070723;28;20031;-64
2023/03/21 11:53:25;;;;;;;22.52;14.93;;;10.30;99.90;;;;;;5053975;28;20471;-64
2023/03/21 11:56:06;;;;;;;20.52;15.27;;;10.50;99.90;;;;;;5054854;28;20254;-66
2023/03/21 11:59:03;;;;;;;20.65;14.15;;;10.30;99.90;;;;;;5071582;28;20064;-64
2023/03/21 12:01:32;;;;;;;17.83;12.82;;;10.60;99.90;;;;;;5076363;28;20331;-64
2023/03/21 12:04:09;;;;;;;16.25;12.20;;;10.50;99.90;;;;;;5087855;28;20055;-64
2023/03/21 12:06:46;;;;;;;21.55;15.30;;;10.90;99.90;;;;;;5078994;28;20491;-63
2023/03/21 12:09:21;;;;;;;17.67;12.13;;;11.00;99.90;;;;;;5071404;28;20039;-64
2023/03/21 12:12:15;;;;;;;16.52;11.57;;;10.90;99.90;;;;;;5077034;28;20342;-65
2023/03/21 12:15:02;;;;;;;17.55;12.10;;;11.00;99.90;;;;;;5086381;28;20290;-63
2023/03/21 12:17:49;;;;;;;14.55;11.13;;;11.10;99.90;;;;;;5082157;28;20048;-64
2023/03/21 12:20:24;;;;;;;17.25;10.35;;;11.80;99.90;;;;;;5086833;28;20050;-65
2023/03/21 12:23:06;;;;;;;15.30;10.25;;;11.70;99.90;;;;;;5066542;28;20052;-64
2023/03/21 12:25:38;;;;;;;15.63;11.02;;;11.50;99.90;;;;;;5057118;28;20051;-64
2023/03/21 12:28:04;;;;;;;14.90;10.20;;;11.50;99.90;;;;;;5083326;28;20036;-64
2023/03/21 12:31:07;;;;;;;13.65;9.70;;;11.70;99.90;;;;;;5080281;28;20673;-63
2023/03/21 12:33:57;;;;;;;14.10;9.45;;;11.80;99.90;;;;;;5055048;28;20040;-65
2023/03/21 12:36:58;;;;;;;12.15;9.13;;;11.90;99.90;;;;;;5059949;28;20485;-63
2023/03/21 12:39:33;;;;;;;14.80;9.18;;;11.80;99.90;;;;;;5078483;28;20046;-63
2023/03/21 12:42:11;;;;;;;15.40;9.30;;;12.00;99.90;;;;;;5081655;28;20043;-62
2023/03/21 12:44:43;;;;;;;14.45;7.85;;;11.70;99.90;;;;;;5086089;28;20036;-63
2023/03/21 12:47:30;;;;;;;14.25;8.60;;;11.90;99.90;;;;;;5083211;28;20044;-63
2023/03/21 12:50:14;;;;;;;14.15;9.10;;;11.80;99.90;;;;;;5083326;28;20444;-67
2023/03/21 12:52:43;;;;;;;16.45;9.63;;;11.60;99.90;;;;;;5086396;28;20150;-63